createdAt,value
2018-08-04T00:02:00.799Z,12.55
2018-08-04T00:04:29.684Z,11.87
2018-08-04T00:06:58.688Z,12.70
2018-08-04T00:09:27.707Z,12.65
2018-08-04T00:11:57.076Z,12.82
2018-08-04T00:14:26.022Z,12.60
2018-08-04T00:16:54.839Z,13.50
2018-08-04T00:19:23.559Z,13.73
2018-08-04T00:21:52.041Z,13.40
2018-08-04T00:24:20.745Z,13.40
2018-08-04T00:26:49.773Z,12.95
2018-08-04T00:29:19.131Z,14.00
2018-08-04T00:31:47.861Z,13.22
2018-08-04T00:34:16.568Z,13.25
2018-08-04T00:36:45.658Z,13.83
2018-08-04T00:39:14.630Z,15.15
2018-08-04T00:41:43.378Z,14.80
2018-08-04T00:44:12.078Z,13.90
2018-08-04T00:46:40.810Z,14.97
2018-08-04T00:49:09.940Z,15.00
2018-08-04T00:51:38.686Z,15.40
2018-08-04T00:54:07.719Z,15.90
2018-08-04T00:56:36.180Z,16.70
2018-08-04T00:59:05.032Z,16.60
2018-08-04T01:01:34.014Z,15.60
2018-08-04T01:04:02.743Z,15.30
2018-08-04T01:06:31.497Z,15.50
2018-08-04T01:09:00.191Z,15.50
2018-08-04T01:11:28.905Z,14.83
2018-08-04T01:13:57.618Z,15.33
2018-08-04T01:16:26.917Z,15.28
2018-08-04T01:18:55.646Z,15.23
2018-08-04T01:21:24.374Z,14.97
2018-08-04T01:23:53.066Z,14.97
2018-08-04T01:26:21.970Z,15.27
2018-08-04T01:28:51.090Z,14.73
2018-08-04T01:31:19.812Z,14.73
2018-08-04T01:33:48.220Z,15.23
2018-08-04T01:36:17.004Z,15.83
2018-08-04T01:38:45.698Z,14.15
2018-08-04T01:41:14.392Z,14.77
2018-08-04T01:43:43.163Z,14.80
2018-08-04T01:46:11.880Z,15.03
2018-08-04T01:48:40.333Z,15.37
2018-08-04T01:51:09.071Z,15.00
2018-08-04T01:53:37.818Z,14.97
2018-08-04T01:56:06.884Z,14.10
2018-08-04T01:58:35.867Z,14.07
2018-08-04T02:01:04.855Z,14.10
2018-08-04T02:03:34.063Z,14.73
2018-08-04T02:06:02.551Z,14.50
2018-08-04T02:08:31.271Z,14.37
2018-08-04T02:11:00.011Z,14.50
2018-08-04T02:13:28.820Z,14.93
2018-08-04T02:15:57.836Z,14.35
2018-08-04T02:18:26.996Z,13.78
2018-08-04T02:20:55.478Z,14.40
2018-08-04T02:23:23.905Z,14.37
2018-08-04T02:25:52.352Z,15.18
2018-08-04T02:28:21.079Z,15.37
2018-08-04T02:30:49.763Z,15.30
2018-08-04T02:33:18.505Z,15.30
2018-08-04T02:35:46.952Z,14.27
2018-08-04T02:38:16.011Z,15.78
2018-08-04T02:40:45.021Z,14.53
2018-08-04T02:43:14.061Z,14.45
2018-08-04T02:45:43.048Z,15.45
2018-08-04T02:48:11.778Z,15.93
2018-08-04T02:50:40.196Z,16.17
2018-08-04T02:53:08.914Z,17.30
2018-08-04T02:55:37.934Z,16.80
2018-08-04T02:58:06.997Z,16.12
2018-08-04T03:00:36.021Z,15.58
2018-08-04T03:03:05.042Z,16.50
2018-08-04T03:05:34.302Z,16.62
2018-08-04T03:08:03.242Z,15.40
2018-08-04T03:10:31.950Z,15.47
2018-08-04T03:13:01.057Z,15.60
2018-08-04T03:15:30.327Z,16.90
2018-08-04T03:17:58.888Z,16.30
2018-08-04T03:20:27.595Z,15.07
2018-08-04T03:22:56.318Z,15.47
2018-08-04T03:25:25.023Z,17.37
2018-08-04T03:27:54.086Z,16.93
2018-08-04T03:30:22.560Z,16.40
2018-08-04T03:32:51.262Z,16.83
2018-08-04T03:35:20.190Z,16.53
2018-08-04T03:37:48.916Z,16.87
2018-08-04T03:40:17.919Z,16.40
2018-08-04T03:42:46.384Z,15.87
2018-08-04T03:45:14.819Z,16.47
2018-08-04T03:47:43.928Z,17.40
2018-08-04T03:50:12.616Z,16.70
2018-08-04T03:52:41.349Z,16.53
2018-08-04T03:55:10.027Z,16.07
2018-08-04T03:57:38.467Z,15.43
2018-08-04T04:00:07.671Z,16.53
2018-08-04T04:02:36.160Z,16.53
2018-08-04T04:05:05.538Z,16.97
2018-08-04T04:07:34.343Z,16.90
2018-08-04T04:10:03.053Z,16.63
2018-08-04T04:12:32.902Z,17.62
2018-08-04T04:15:02.224Z,15.93
2018-08-04T04:17:35.463Z,16.23
2018-08-04T04:20:04.559Z,16.07
2018-08-04T04:22:34.309Z,16.50
2018-08-04T04:25:03.095Z,15.40
2018-08-04T04:27:32.107Z,16.30
2018-08-04T04:30:01.136Z,16.35
2018-08-04T04:32:30.135Z,17.42
2018-08-04T04:34:59.323Z,18.05
2018-08-04T04:37:28.109Z,20.60
2018-08-04T04:39:57.103Z,21.33
2018-08-04T04:42:26.191Z,21.87
2018-08-04T04:44:55.227Z,21.77
2018-08-04T04:47:24.247Z,20.92
2018-08-04T04:49:53.183Z,20.97
2018-08-04T04:52:21.874Z,20.90
2018-08-04T04:54:50.544Z,21.70
2018-08-04T04:57:18.994Z,21.10
2018-08-04T04:59:47.440Z,21.27
2018-08-04T05:02:16.174Z,19.60
2018-08-04T05:04:44.606Z,21.43
2018-08-04T05:07:13.303Z,21.80
2018-08-04T05:09:42.275Z,21.97
2018-08-04T05:12:11.194Z,20.73
2018-08-04T05:14:40.378Z,23.50
2018-08-04T05:17:09.097Z,22.63
2018-08-04T05:19:37.559Z,22.50
2018-08-04T05:22:06.393Z,23.20
2018-08-04T05:24:35.173Z,21.77
2018-08-04T05:27:04.199Z,22.58
2018-08-04T05:29:34.137Z,21.90
2018-08-04T05:32:02.625Z,21.70
2018-08-04T05:34:31.193Z,20.43
2018-08-04T05:37:00.222Z,21.85
2018-08-04T05:39:29.362Z,22.65
2018-08-04T05:41:58.031Z,21.80
2018-08-04T05:44:26.503Z,23.40
2018-08-04T05:46:55.107Z,22.53
2018-08-04T05:49:23.617Z,22.53
2018-08-04T05:51:52.275Z,22.17
2018-08-04T05:54:20.734Z,21.90
2018-08-04T05:56:49.230Z,21.57
2018-08-04T05:59:18.394Z,22.17
2018-08-04T06:01:47.295Z,22.13
2018-08-04T06:04:16.309Z,23.50
2018-08-04T06:06:44.835Z,23.33
2018-08-04T06:09:13.620Z,21.47
2018-08-04T06:11:42.383Z,22.73
2018-08-04T06:14:11.393Z,21.55
2018-08-04T06:16:40.121Z,21.60
2018-08-04T06:19:08.912Z,22.60
2018-08-04T06:21:37.496Z,22.40
2018-08-04T06:24:06.203Z,22.67
2018-08-04T06:26:35.104Z,23.03
2018-08-04T06:29:04.366Z,22.23
2018-08-04T06:31:34.359Z,21.48
2018-08-04T06:34:03.332Z,22.95
2018-08-04T06:36:32.570Z,22.22
2018-08-04T06:39:01.274Z,21.97
2018-08-04T06:41:29.739Z,22.40
2018-08-04T06:43:58.620Z,20.10
2018-08-04T06:46:27.346Z,21.83
2018-08-04T06:48:56.337Z,21.52
2018-08-04T06:51:25.367Z,21.20
2018-08-04T06:53:54.388Z,20.70
2018-08-04T06:56:23.127Z,20.17
2018-08-04T06:58:52.261Z,19.37
2018-08-04T07:01:21.459Z,18.57
2018-08-04T07:03:50.153Z,18.92
2018-08-04T07:06:18.951Z,18.67
2018-08-04T07:08:47.634Z,18.77
2018-08-04T07:11:16.525Z,17.93
2018-08-04T07:13:45.574Z,19.03
2018-08-04T07:16:14.539Z,17.53
2018-08-04T07:18:43.320Z,18.73
2018-08-04T07:21:12.322Z,19.48
2018-08-04T07:23:40.760Z,18.00
2018-08-04T07:26:09.344Z,18.00
2018-08-04T07:28:38.352Z,19.10
2018-08-04T07:31:07.366Z,18.73
2018-08-04T07:33:36.458Z,19.02
2018-08-04T07:36:05.382Z,19.20
2018-08-04T07:38:34.602Z,19.02
2018-08-04T07:41:03.777Z,19.27
2018-08-04T07:43:32.605Z,18.23
2018-08-04T07:46:01.521Z,17.33
2018-08-04T07:48:30.250Z,17.60
2018-08-04T07:50:59.001Z,16.07
2018-08-04T07:53:27.708Z,16.90
2018-08-04T07:55:56.491Z,14.83
2018-08-04T07:58:25.225Z,17.00
2018-08-04T08:00:53.951Z,17.07
2018-08-04T08:03:22.669Z,16.83
2018-08-04T08:05:51.415Z,16.07
2018-08-04T08:08:20.414Z,16.62
2018-08-04T08:10:48.946Z,16.07
2018-08-04T08:13:17.850Z,15.03
2018-08-04T08:15:46.731Z,15.30
2018-08-04T08:18:15.451Z,15.37
2018-08-04T08:20:44.533Z,15.60
2018-08-04T08:23:13.293Z,16.33
2018-08-04T08:25:52.675Z,15.18
2018-08-04T08:28:21.443Z,15.00
2018-08-04T08:30:50.515Z,18.00
2018-08-04T08:33:19.514Z,16.85
2018-08-04T08:35:48.556Z,15.72
2018-08-04T08:38:17.288Z,15.30
2018-08-04T08:40:46.061Z,15.20
2018-08-04T08:43:14.815Z,16.73
2018-08-04T08:45:43.579Z,15.73
2018-08-04T08:48:12.682Z,15.80
2018-08-04T08:50:41.491Z,13.77
2018-08-04T08:53:10.623Z,13.93
2018-08-04T08:55:39.410Z,14.03
2018-08-04T08:58:08.631Z,13.75
2018-08-04T09:00:37.378Z,13.30
2018-08-04T09:03:06.834Z,14.68
2018-08-04T09:05:35.570Z,14.30
2018-08-04T09:08:04.323Z,13.00
2018-08-04T09:10:33.951Z,12.20
2018-08-04T09:13:02.990Z,12.00
2018-08-04T09:15:31.706Z,11.30
2018-08-04T09:18:00.480Z,12.33
2018-08-04T09:20:29.637Z,12.40
2018-08-04T09:22:58.412Z,14.27
2018-08-04T09:25:27.311Z,12.43
2018-08-04T09:27:56.052Z,11.50
2018-08-04T09:30:24.885Z,15.97
2018-08-04T09:32:53.791Z,12.27
2018-08-04T09:35:22.494Z,12.63
2018-08-04T09:37:50.956Z,12.07
2018-08-04T09:40:19.704Z,11.17
2018-08-04T09:42:48.426Z,11.68
2018-08-04T09:45:17.440Z,12.30
2018-08-04T09:47:48.345Z,12.03
2018-08-04T09:50:17.055Z,11.13
2018-08-04T09:52:45.774Z,11.40
2018-08-04T09:55:14.459Z,11.23
2018-08-04T09:57:43.225Z,11.22
2018-08-04T10:00:17.163Z,10.90
2018-08-04T10:02:45.945Z,10.97
2018-08-04T10:05:14.763Z,10.87
2018-08-04T10:07:43.778Z,10.77
2018-08-04T10:10:12.563Z,10.77
2018-08-04T10:12:41.188Z,10.73
2018-08-04T10:15:10.944Z,10.07
2018-08-04T10:17:40.036Z,12.67
2018-08-04T10:20:09.081Z,10.53
2018-08-04T10:22:38.084Z,12.90
2018-08-04T10:25:07.585Z,10.53
2018-08-04T10:27:36.630Z,10.13
2018-08-04T10:30:08.082Z,10.90
2018-08-04T10:32:36.907Z,10.20
2018-08-04T10:35:05.921Z,9.90
2018-08-04T10:37:35.018Z,9.50
2018-08-04T10:40:03.821Z,9.30
2018-08-04T10:42:32.555Z,10.17
2018-08-04T10:45:01.656Z,8.63
2018-08-04T10:47:30.499Z,7.93
2018-08-04T10:49:59.159Z,7.97
2018-08-04T10:52:27.871Z,7.93
2018-08-04T10:54:56.622Z,7.40
2018-08-04T10:57:25.599Z,8.05
2018-08-04T10:59:54.361Z,8.00
2018-08-04T11:02:23.081Z,8.17
2018-08-04T11:04:51.786Z,8.17
2018-08-04T11:07:20.466Z,7.93
2018-08-04T11:09:49.168Z,7.77
2018-08-04T11:12:17.850Z,8.23
2018-08-04T11:14:46.650Z,7.55
2018-08-04T11:17:15.716Z,8.30
2018-08-04T11:19:44.783Z,7.20
2018-08-04T11:22:14.034Z,7.33
2018-08-04T11:24:42.912Z,7.35
2018-08-04T11:27:11.632Z,8.17
2018-08-04T11:29:40.501Z,8.77
2018-08-04T11:32:09.174Z,7.70
2018-08-04T11:34:37.909Z,8.73
2018-08-04T11:37:06.523Z,8.30
2018-08-04T11:39:35.372Z,8.50
2018-08-04T11:42:04.229Z,8.60
2018-08-04T11:44:32.987Z,7.93
2018-08-04T11:47:01.701Z,7.60
2018-08-04T11:49:30.724Z,7.67
2018-08-04T11:51:59.834Z,7.55
2018-08-04T11:54:28.863Z,6.97
2018-08-04T11:56:57.854Z,7.83
2018-08-04T11:59:26.906Z,7.45
2018-08-04T12:01:55.786Z,8.00
2018-08-04T12:04:24.481Z,8.13
2018-08-04T12:06:52.895Z,7.65
2018-08-04T12:09:21.893Z,8.20
2018-08-04T12:11:50.675Z,8.10
2018-08-04T12:14:19.723Z,8.20
2018-08-04T12:16:48.490Z,7.57
2018-08-04T12:19:17.239Z,7.83
2018-08-04T12:21:46.335Z,7.50
2018-08-04T12:24:15.148Z,7.93
2018-08-04T12:26:43.781Z,7.90
2018-08-04T12:29:12.884Z,7.60
2018-08-04T12:31:41.857Z,7.78
2018-08-04T12:34:10.918Z,7.28
2018-08-04T12:36:39.587Z,7.20
2018-08-04T12:39:09.796Z,8.10
2018-08-04T12:41:39.022Z,7.42
2018-08-04T12:44:08.846Z,7.43
2018-08-04T12:46:37.702Z,8.43
2018-08-04T12:49:06.892Z,8.03
2018-08-04T12:51:35.396Z,7.67
2018-08-04T12:54:04.153Z,7.13
2018-08-04T12:56:33.171Z,7.57
2018-08-04T12:59:01.894Z,7.47
2018-08-04T13:01:30.894Z,7.37
2018-08-04T13:03:59.979Z,7.60
2018-08-04T13:06:29.011Z,7.37
2018-08-04T13:08:57.889Z,6.93
2018-08-04T13:11:26.993Z,7.05
2018-08-04T13:13:55.707Z,7.83
2018-08-04T13:16:24.482Z,7.47
2018-08-04T13:18:53.007Z,6.50
2018-08-04T13:21:21.715Z,7.10
2018-08-04T13:23:50.537Z,7.10
2018-08-04T13:26:19.304Z,6.70
2018-08-04T13:28:48.075Z,6.57
2018-08-04T13:31:16.810Z,7.00
2018-08-04T13:33:45.291Z,7.10
2018-08-04T13:36:14.042Z,7.27
2018-08-04T13:38:43.068Z,7.10
2018-08-04T13:41:12.170Z,6.70
2018-08-04T13:43:41.121Z,7.60
2018-08-04T13:46:09.940Z,7.37
2018-08-04T13:48:39.105Z,7.67
2018-08-04T13:51:07.942Z,7.47
2018-08-04T13:53:36.989Z,7.25
2018-08-04T13:56:06.104Z,7.37
2018-08-04T13:58:35.398Z,6.78
2018-08-04T14:01:04.114Z,6.70
2018-08-04T14:03:32.972Z,6.97
2018-08-04T14:06:01.984Z,7.50
2018-08-04T14:08:30.777Z,6.62
2018-08-04T14:10:59.807Z,7.12
2018-08-04T14:13:28.637Z,7.10
2018-08-04T14:15:57.350Z,6.90
2018-08-04T14:18:26.103Z,6.70
2018-08-04T14:20:55.099Z,6.80
2018-08-04T14:23:24.301Z,7.22
2018-08-04T14:25:53.197Z,6.93
2018-08-04T14:28:22.092Z,7.33
2018-08-04T14:30:50.958Z,6.03
2018-08-04T14:33:19.862Z,7.20
2018-08-04T14:35:48.664Z,6.40
2018-08-04T14:38:17.449Z,6.90
2018-08-04T14:40:46.239Z,6.90
2018-08-04T14:43:15.158Z,7.17
2018-08-04T14:45:43.956Z,6.70
2018-08-04T14:48:12.984Z,6.33
2018-08-04T14:50:41.942Z,6.40
2018-08-04T14:53:13.316Z,6.40
2018-08-04T14:55:43.466Z,6.60
2018-08-04T14:58:12.210Z,6.07
2018-08-04T15:00:40.973Z,6.45
2018-08-04T15:03:09.965Z,6.97
2018-08-04T15:05:45.099Z,6.60
2018-08-04T15:08:19.145Z,6.77
2018-08-04T15:10:49.036Z,6.40
2018-08-04T15:13:18.127Z,6.72
2018-08-04T15:15:48.053Z,7.72
2018-08-04T15:18:17.214Z,6.10
2018-08-04T15:20:49.103Z,7.00
2018-08-04T15:23:20.671Z,6.37
2018-08-04T15:25:50.243Z,6.45
2018-08-04T15:28:21.723Z,6.95
2018-08-04T15:30:52.831Z,6.80
2018-08-04T15:33:22.690Z,6.40
2018-08-04T15:35:51.328Z,7.23
2018-08-04T15:38:20.054Z,6.60
2018-08-04T15:40:49.348Z,6.60
2018-08-04T15:43:18.639Z,7.23
2018-08-04T15:45:47.529Z,6.53
2018-08-04T15:48:17.047Z,6.47
2018-08-04T15:50:45.530Z,6.00
2018-08-04T15:53:14.338Z,6.20
2018-08-04T15:55:43.265Z,6.50
2018-08-04T15:58:12.038Z,6.80
2018-08-04T16:00:40.743Z,6.70
2018-08-04T16:03:09.512Z,6.67
2018-08-04T16:05:38.202Z,6.63
2018-08-04T16:08:07.019Z,6.47
2018-08-04T16:10:35.702Z,6.27
2018-08-04T16:13:04.414Z,6.10
2018-08-04T16:15:33.098Z,6.80
2018-08-04T16:18:02.103Z,6.72
2018-08-04T16:20:31.099Z,7.25
2018-08-04T16:22:59.796Z,6.73
2018-08-04T16:25:28.567Z,7.80
2018-08-04T16:27:57.287Z,6.93
2018-08-04T16:30:26.305Z,6.87
2018-08-04T16:32:55.263Z,7.17
2018-08-04T16:35:24.299Z,7.50
2018-08-04T16:37:53.551Z,7.33
2018-08-04T16:40:22.286Z,7.27
2018-08-04T16:42:51.251Z,7.00
2018-08-04T16:45:20.271Z,6.97
2018-08-04T16:47:49.324Z,6.83
2018-08-04T16:50:18.442Z,6.75
2018-08-04T16:52:47.130Z,7.45
2018-08-04T16:55:15.786Z,7.27
2018-08-04T16:57:44.743Z,6.53
2018-08-04T17:00:13.659Z,7.07
2018-08-04T17:02:42.367Z,6.90
2018-08-04T17:05:11.464Z,6.72
2018-08-04T17:07:40.150Z,6.93
2018-08-04T17:10:08.881Z,7.50
2018-08-04T17:12:37.938Z,7.27
2018-08-04T17:15:06.769Z,8.33
2018-08-04T17:17:35.702Z,7.63
2018-08-04T17:20:05.716Z,8.13
2018-08-04T17:22:35.478Z,8.35
2018-08-04T17:25:04.272Z,8.53
2018-08-04T17:27:33.069Z,8.77
2018-08-04T17:30:02.428Z,8.30
2018-08-04T17:32:31.552Z,9.00
2018-08-04T17:35:00.287Z,8.90
2018-08-04T17:37:29.416Z,8.08
2018-08-04T17:39:58.435Z,9.40
2018-08-04T17:42:27.459Z,9.20
2018-08-04T17:44:56.569Z,8.50
2018-08-04T17:47:25.327Z,8.63
2018-08-04T17:49:53.966Z,8.37
2018-08-04T17:52:22.897Z,8.60
2018-08-04T17:54:51.714Z,9.10
2018-08-04T17:57:20.677Z,9.57
2018-08-04T17:59:49.696Z,9.17
2018-08-04T18:02:18.422Z,8.93
2018-08-04T18:04:47.472Z,9.50
2018-08-04T18:07:16.246Z,13.60
2018-08-04T18:09:44.932Z,10.27
2018-08-04T18:12:13.639Z,9.60
2018-08-04T18:14:42.525Z,10.03
2018-08-04T18:17:11.229Z,10.20
2018-08-04T18:19:39.661Z,10.30
2018-08-04T18:22:08.363Z,9.30
2018-08-04T18:24:37.349Z,9.98
2018-08-04T18:27:06.331Z,9.40
2018-08-04T18:29:35.682Z,9.38
2018-08-04T18:32:04.609Z,9.47
2018-08-04T18:34:33.471Z,9.63
2018-08-04T18:37:02.243Z,9.40
2018-08-04T18:39:31.010Z,9.40
2018-08-04T18:41:59.777Z,9.03
2018-08-04T18:44:28.525Z,9.27
2018-08-04T18:46:57.334Z,9.83
2018-08-04T18:49:26.307Z,9.75
2018-08-04T18:51:55.126Z,12.83
2018-08-04T18:54:23.828Z,11.43
2018-08-04T18:56:52.649Z,9.63
2018-08-04T18:59:21.396Z,10.13
2018-08-04T19:01:49.827Z,10.20
2018-08-04T19:04:18.574Z,10.00
2018-08-04T19:06:47.335Z,10.10
2018-08-04T19:09:16.183Z,9.23
2018-08-04T19:11:45.043Z,10.00
2018-08-04T19:14:13.973Z,10.17
2018-08-04T19:16:42.827Z,10.93
2018-08-04T19:19:11.594Z,9.97
2018-08-04T19:21:40.619Z,10.53
2018-08-04T19:24:09.384Z,10.37
2018-08-04T19:26:38.640Z,10.00
2018-08-04T19:29:07.472Z,9.73
2018-08-04T19:31:35.956Z,10.40
2018-08-04T19:34:04.749Z,9.77
2018-08-04T19:36:33.719Z,10.03
2018-08-04T19:39:02.398Z,9.77
2018-08-04T19:41:31.113Z,9.70
2018-08-04T19:44:00.083Z,9.20
2018-08-04T19:46:28.865Z,9.80
2018-08-04T19:48:57.558Z,10.07
2018-08-04T19:51:26.586Z,10.30
2018-08-04T19:53:55.601Z,10.23
2018-08-04T19:56:24.324Z,9.35
2018-08-04T19:58:53.482Z,10.25
2018-08-04T20:01:22.566Z,9.63
2018-08-04T20:03:51.602Z,9.93
2018-08-04T20:06:20.663Z,10.25
2018-08-04T20:08:49.300Z,10.63
2018-08-04T20:11:18.427Z,10.53
2018-08-04T20:13:47.236Z,10.67
2018-08-04T20:16:16.053Z,11.17
2018-08-04T20:18:44.991Z,10.47
2018-08-04T20:21:13.775Z,12.63
2018-08-04T20:23:42.552Z,12.27
2018-08-04T20:26:11.584Z,13.05
2018-08-04T20:28:40.522Z,10.90
2018-08-04T20:31:09.564Z,11.22
2018-08-04T20:33:38.048Z,11.70
2018-08-04T20:36:06.753Z,11.23
2018-08-04T20:38:37.173Z,11.10
2018-08-04T20:41:06.606Z,10.80
2018-08-04T20:43:35.834Z,10.15
2018-08-04T20:46:04.827Z,10.93
2018-08-04T20:48:33.565Z,10.07
2018-08-04T20:51:02.739Z,9.83
2018-08-04T20:53:31.687Z,10.30
2018-08-04T20:56:00.414Z,9.87
2018-08-04T20:58:29.200Z,10.03
2018-08-04T21:01:08.966Z,10.07
2018-08-04T21:03:37.739Z,11.03
2018-08-04T21:06:06.546Z,11.10
2018-08-04T21:08:35.799Z,11.18
2018-08-04T21:11:04.567Z,10.43
2018-08-04T21:13:33.700Z,10.43
2018-08-04T21:16:02.742Z,11.28
2018-08-04T21:18:31.932Z,11.60
2018-08-04T21:21:00.678Z,11.47
2018-08-04T21:23:29.820Z,11.38
2018-08-04T21:25:58.775Z,11.13
2018-08-04T21:28:27.547Z,11.17
2018-08-04T21:30:56.352Z,10.93
2018-08-04T21:33:25.147Z,11.57
2018-08-04T21:35:54.025Z,11.23
2018-08-04T21:38:23.009Z,11.40
2018-08-04T21:40:52.965Z,11.73
2018-08-04T21:43:21.719Z,11.00
2018-08-04T21:45:50.253Z,11.33
2018-08-04T21:48:19.081Z,10.93
2018-08-04T21:50:47.861Z,11.48
2018-08-04T21:53:16.303Z,11.17
2018-08-04T21:55:45.179Z,12.10
2018-08-04T21:58:14.100Z,11.77
2018-08-04T22:00:48.235Z,11.60
2018-08-04T22:03:16.997Z,11.23
2018-08-04T22:05:46.811Z,11.85
2018-08-04T22:08:27.197Z,11.50
2018-08-04T22:10:55.989Z,11.00
2018-08-04T22:13:24.802Z,10.77
2018-08-04T22:15:53.925Z,12.28
2018-08-04T22:18:22.717Z,11.63
2018-08-04T22:20:51.956Z,11.83
2018-08-04T22:23:20.742Z,11.83
2018-08-04T22:25:49.735Z,12.03
2018-08-04T22:28:18.776Z,12.50
2018-08-04T22:30:47.799Z,11.90
2018-08-04T22:33:16.720Z,11.57
2018-08-04T22:35:45.110Z,12.67
2018-08-04T22:38:13.929Z,12.63
2018-08-04T22:40:42.933Z,11.75
2018-08-04T22:43:11.987Z,11.55
2018-08-04T22:46:06.156Z,12.00
2018-08-04T22:48:36.172Z,12.30
2018-08-04T22:51:05.243Z,11.43
2018-08-04T22:53:34.254Z,11.83
2018-08-04T22:56:02.995Z,12.13
2018-08-04T22:58:31.846Z,12.20
2018-08-04T23:01:00.850Z,12.70
2018-08-04T23:03:30.139Z,12.18
2018-08-04T23:05:58.915Z,12.30
2018-08-04T23:08:28.109Z,12.43
2018-08-04T23:10:56.850Z,11.83
2018-08-04T23:13:26.009Z,11.57
2018-08-04T23:15:54.757Z,11.50
2018-08-04T23:18:23.467Z,12.03
2018-08-04T23:20:52.312Z,11.63
2018-08-04T23:23:21.015Z,12.60
2018-08-04T23:25:50.138Z,13.03
2018-08-04T23:28:18.975Z,13.07
2018-08-04T23:30:47.785Z,11.88
2018-08-04T23:33:16.791Z,13.45
2018-08-04T23:35:45.637Z,12.17
2018-08-04T23:38:14.335Z,12.60
2018-08-04T23:40:43.033Z,13.27
2018-08-04T23:43:11.759Z,13.07
2018-08-04T23:45:40.007Z,13.13
2018-08-04T23:48:09.090Z,12.53
2018-08-04T23:50:37.838Z,12.33
2018-08-04T23:53:06.584Z,13.73
2018-08-04T23:55:36.071Z,12.70
2018-08-04T23:58:04.788Z,12.83
